Time;durP1;ratioP1;P1;durP2;ratioP2;P2;SDS_P1;SDS_P2;PMS_P1;PMS_P2;Temp;Humidity;BMP_temperature;BMP_pressure;BME280_temperature;BME280_humidity;BME280_pressure;Samples;Min_cycle;Max_cycle;Signal;HPM_P1;HPM_P2
2022/03/15 00:00:36;;;;;;;36.37;21.43;;;4.50;77.80;;;;;;5031096;28;20629;-72
2022/03/15 00:03:03;;;;;;;40.10;22.20;;;4.50;77.80;;;;;;5033905;28;20205;-71
2022/03/15 00:05:30;;;;;;;37.97;22.57;;;4.50;77.90;;;;;;5028683;28;20261;-71
2022/03/15 00:07:57;;;;;;;36.03;20.97;;;4.60;77.90;;;;;;5015517;28;20215;-71
2022/03/15 00:10:25;;;;;;;37.17;22.43;;;4.60;77.80;;;;;;5027026;28;20650;-71
2022/03/15 00:12:56;;;;;;;34.63;20.53;;;4.50;77.70;;;;;;5034322;28;20206;-71
2022/03/15 00:15:24;;;;;;;34.60;22.17;;;4.60;77.80;;;;;;5031067;28;20219;-71
2022/03/15 00:17:51;;;;;;;33.47;20.43;;;4.60;77.30;;;;;;5017421;28;20685;-71
2022/03/15 00:20:23;;;;;;;36.30;20.97;;;4.60;77.10;;;;;;5029721;28;20241;-71
2022/03/15 00:22:55;;;;;;;33.77;21.53;;;4.70;76.80;;;;;;5032909;28;20210;-72
2022/03/15 00:25:22;;;;;;;36.47;21.30;;;4.70;76.60;;;;;;5034972;28;20245;-72
2022/03/15 00:27:51;;;;;;;35.00;21.20;;;4.80;76.50;;;;;;5031667;28;20290;-72
2022/03/15 00:30:21;;;;;;;33.13;20.07;;;4.80;76.20;;;;;;5029244;28;20241;-71
2022/03/15 00:32:49;;;;;;;35.23;21.20;;;4.80;76.10;;;;;;5035336;28;20266;-72
2022/03/15 00:35:18;;;;;;;36.13;20.93;;;4.80;76.00;;;;;;5028833;28;20651;-71
2022/03/15 00:37:46;;;;;;;39.57;21.40;;;4.80;75.80;;;;;;5031883;28;20225;-71
2022/03/15 00:40:13;;;;;;;36.07;20.60;;;4.80;75.90;;;;;;5021663;28;20269;-71
2022/03/15 00:42:48;;;;;;;36.17;22.33;;;4.80;75.80;;;;;;5025857;28;20218;-71
2022/03/15 00:45:15;;;;;;;35.57;21.87;;;4.80;75.80;;;;;;5034737;28;20202;-72
2022/03/15 00:47:44;;;;;;;37.80;21.77;;;4.80;75.80;;;;;;5032677;28;20320;-71
2022/03/15 00:50:11;;;;;;;38.47;22.53;;;4.80;75.80;;;;;;5029427;28;20211;-72
2022/03/15 00:52:38;;;;;;;34.67;21.73;;;4.80;75.80;;;;;;5024847;28;20226;-71
2022/03/15 00:55:06;;;;;;;35.53;21.53;;;4.80;75.80;;;;;;5034425;28;20210;-71
2022/03/15 00:57:33;;;;;;;36.43;22.43;;;4.80;75.80;;;;;;5024231;28;20313;-71
2022/03/15 01:00:00;;;;;;;37.50;22.57;;;4.80;75.80;;;;;;5030503;28;20210;-71
2022/03/15 01:02:27;;;;;;;35.53;21.80;;;4.80;75.50;;;;;;5034484;28;20203;-72
2022/03/15 01:04:56;;;;;;;35.40;21.47;;;4.80;75.30;;;;;;5034003;28;20221;-72
2022/03/15 01:07:23;;;;;;;34.80;21.80;;;4.80;75.00;;;;;;5032070;28;20682;-72
2022/03/15 01:09:50;;;;;;;39.87;22.67;;;4.80;74.70;;;;;;5030733;28;20289;-71
2022/03/15 01:12:16;;;;;;;36.43;22.60;;;4.90;74.10;;;;;;5035983;28;20273;-71
2022/03/15 01:14:43;;;;;;;39.07;23.13;;;4.80;73.40;;;;;;5036256;28;20209;-70
2022/03/15 01:17:10;;;;;;;43.53;24.13;;;4.90;73.30;;;;;;5035147;28;20270;-71
2022/03/15 01:19:37;;;;;;;38.97;22.53;;;4.90;73.20;;;;;;5025598;28;20207;-71
2022/03/15 01:22:06;;;;;;;37.43;22.43;;;4.80;73.10;;;;;;5031711;28;20222;-71
2022/03/15 01:24:33;;;;;;;40.40;23.30;;;4.80;74.00;;;;;;5035230;28;20683;-71
2022/03/15 01:27:00;;;;;;;38.13;23.47;;;4.80;73.20;;;;;;5028429;28;20239;-72
2022/03/15 01:29:28;;;;;;;35.50;22.40;;;4.80;73.30;;;;;;5033562;28;20238;-71
2022/03/15 01:31:55;;;;;;;40.87;25.07;;;4.80;73.50;;;;;;5035154;28;20272;-71
2022/03/15 01:34:23;;;;;;;39.57;22.50;;;4.70;73.50;;;;;;5033381;28;20238;-71
2022/03/15 01:36:50;;;;;;;37.00;23.23;;;4.70;73.80;;;;;;5034547;28;20234;-72
2022/03/15 01:39:19;;;;;;;37.83;22.33;;;4.70;74.00;;;;;;5015979;28;20226;-71
2022/03/15 01:41:46;;;;;;;41.70;22.83;;;4.60;73.60;;;;;;5018724;28;20241;-71
2022/03/15 01:44:18;;;;;;;39.60;22.10;;;4.60;73.50;;;;;;5030431;28;20288;-72
2022/03/15 01:46:46;;;;;;;38.50;22.37;;;4.60;73.50;;;;;;5032952;28;20581;-72
2022/03/15 01:49:13;;;;;;;39.13;22.77;;;4.60;73.40;;;;;;5034409;28;20628;-71
2022/03/15 01:51:41;;;;;;;36.13;22.83;;;4.60;73.40;;;;;;5033201;28;20659;-71
2022/03/15 01:54:09;;;;;;;38.90;23.13;;;4.60;73.40;;;;;;5034193;28;20221;-71
2022/03/15 01:56:40;;;;;;;43.57;22.83;;;4.60;73.40;;;;;;5031957;28;20272;-71
2022/03/15 01:59:08;;;;;;;35.03;21.70;;;4.50;73.50;;;;;;5032333;28;20233;-71
2022/03/15 02:01:35;;;;;;;33.70;21.47;;;4.40;73.40;;;;;;5032685;28;20652;-71
2022/03/15 02:04:01;;;;;;;40.40;22.67;;;4.50;73.60;;;;;;5033085;28;20214;-72
2022/03/15 02:06:30;;;;;;;38.57;21.40;;;4.50;73.50;;;;;;5023924;28;20301;-71
2022/03/15 02:08:57;;;;;;;38.03;22.30;;;4.50;73.40;;;;;;5027028;28;20211;-72
2022/03/15 02:11:26;;;;;;;37.23;22.63;;;4.50;73.50;;;;;;5031965;28;20644;-72
2022/03/15 02:13:55;;;;;;;37.63;22.93;;;4.50;73.30;;;;;;5033515;28;20202;-71
2022/03/15 02:16:21;;;;;;;36.73;22.87;;;4.50;73.20;;;;;;5033167;28;20305;-72
2022/03/15 02:18:49;;;;;;;35.17;21.63;;;4.50;73.10;;;;;;5032733;28;20237;-73
2022/03/15 02:21:17;;;;;;;34.03;21.23;;;4.50;73.00;;;;;;5029973;28;20755;-72
2022/03/15 02:23:44;;;;;;;42.67;23.87;;;4.40;72.90;;;;;;5032800;28;20206;-72
2022/03/15 02:26:10;;;;;;;39.53;23.00;;;4.60;73.00;;;;;;5031487;28;20656;-72
2022/03/15 02:28:37;;;;;;;34.20;21.43;;;4.40;72.90;;;;;;5026777;28;20297;-72
2022/03/15 02:31:04;;;;;;;36.00;21.80;;;4.40;72.90;;;;;;5032447;28;20207;-72
2022/03/15 02:33:31;;;;;;;43.60;22.10;;;4.40;72.90;;;;;;5033669;28;20209;-72
2022/03/15 02:35:58;;;;;;;34.07;21.20;;;4.50;73.70;;;;;;5021197;28;20210;-71
2022/03/15 02:38:26;;;;;;;37.00;21.87;;;4.50;72.50;;;;;;5021150;28;20310;-72
2022/03/15 02:40:53;;;;;;;36.17;22.00;;;4.40;72.10;;;;;;5031764;28;20281;-72
2022/03/15 02:43:20;;;;;;;33.97;21.57;;;4.40;72.00;;;;;;5035626;28;20298;-71
2022/03/15 02:45:47;;;;;;;35.03;21.23;;;4.50;71.90;;;;;;5036998;28;20218;-70
2022/03/15 02:48:14;;;;;;;35.80;21.07;;;4.50;71.80;;;;;;5035981;28;20203;-70
2022/03/15 02:50:41;;;;;;;37.27;21.63;;;4.50;71.60;;;;;;5037131;28;20317;-70
2022/03/15 02:53:08;;;;;;;32.40;21.13;;;4.50;71.50;;;;;;5021915;28;20694;-70
2022/03/15 02:55:36;;;;;;;37.87;21.23;;;4.50;71.40;;;;;;5035479;28;20551;-70
2022/03/15 02:58:03;;;;;;;38.80;22.13;;;4.50;71.20;;;;;;5033411;28;20213;-70
2022/03/15 03:00:30;;;;;;;33.93;21.00;;;4.50;71.20;;;;;;5031954;28;20265;-71
2022/03/15 03:02:57;;;;;;;34.37;20.70;;;4.50;71.10;;;;;;5036495;28;20210;-72
2022/03/15 03:05:24;;;;;;;36.27;21.83;;;4.50;70.80;;;;;;5022255;28;20203;-71
2022/03/15 03:07:51;;;;;;;35.23;21.53;;;4.50;70.50;;;;;;5027639;28;20229;-72
2022/03/15 03:10:18;;;;;;;35.03;21.73;;;4.50;70.40;;;;;;5035633;28;20215;-72
2022/03/15 03:12:47;;;;;;;34.97;20.80;;;4.60;70.50;;;;;;5026822;28;20210;-72
2022/03/15 03:15:17;;;;;;;33.93;20.67;;;4.60;70.50;;;;;;5035003;28;20253;-71
2022/03/15 03:17:45;;;;;;;30.97;20.83;;;4.60;70.50;;;;;;5035525;28;20214;-71
2022/03/15 03:20:14;;;;;;;35.13;21.80;;;4.60;70.30;;;;;;5036040;28;20226;-72
2022/03/15 03:22:41;;;;;;;35.50;20.60;;;4.60;70.20;;;;;;5035163;28;20237;-72
2022/03/15 03:25:09;;;;;;;36.47;21.57;;;4.60;70.90;;;;;;5035314;28;20213;-72
2022/03/15 03:27:36;;;;;;;36.37;21.17;;;4.60;70.10;;;;;;5031295;28;20214;-71
2022/03/15 03:30:05;;;;;;;36.57;21.93;;;4.60;70.00;;;;;;5035850;28;20214;-72
2022/03/15 03:32:32;;;;;;;34.80;21.23;;;4.50;70.00;;;;;;5035114;28;20663;-72
2022/03/15 03:35:04;;;;;;;33.30;20.27;;;4.50;70.10;;;;;;5026102;28;20271;-72
2022/03/15 03:37:32;;;;;;;32.80;20.33;;;4.50;70.00;;;;;;5032663;28;20206;-72
2022/03/15 03:39:59;;;;;;;36.50;20.53;;;4.50;70.00;;;;;;5020644;28;20246;-72
2022/03/15 03:42:26;;;;;;;35.43;20.93;;;4.50;69.80;;;;;;5029234;28;20269;-72
2022/03/15 03:44:53;;;;;;;37.87;20.77;;;4.50;70.30;;;;;;5035600;28;20206;-72
2022/03/15 03:47:21;;;;;;;36.70;20.40;;;4.60;69.50;;;;;;5034440;28;20592;-73
2022/03/15 03:49:48;;;;;;;35.40;20.37;;;4.60;69.10;;;;;;5035531;28;20526;-72
2022/03/15 03:52:15;;;;;;;32.53;20.03;;;4.70;68.90;;;;;;5033170;28;20241;-70
2022/03/15 03:54:42;;;;;;;30.70;20.13;;;4.70;68.80;;;;;;5035856;28;20238;-69
2022/03/15 03:57:09;;;;;;;32.67;20.27;;;4.70;68.60;;;;;;5034301;28;20294;-69
2022/03/15 03:59:36;;;;;;;33.07;20.63;;;4.70;68.40;;;;;;5035252;28;20313;-69
2022/03/15 04:02:03;;;;;;;32.10;19.90;;;4.70;68.40;;;;;;5031691;28;20655;-69
2022/03/15 04:04:31;;;;;;;33.73;19.83;;;4.70;68.30;;;;;;5027232;28;20215;-70
2022/03/15 04:07:02;;;;;;;36.07;20.87;;;4.70;68.30;;;;;;5036636;28;20234;-69
2022/03/15 04:09:28;;;;;;;32.53;21.00;;;4.60;68.20;;;;;;5029877;28;20234;-69
2022/03/15 04:11:55;;;;;;;31.90;20.73;;;4.60;68.40;;;;;;5024803;28;20234;-70
2022/03/15 04:14:22;;;;;;;39.93;20.87;;;4.60;68.50;;;;;;5036347;28;20209;-69
2022/03/15 04:16:49;;;;;;;38.47;20.90;;;4.60;68.70;;;;;;5033800;28;20214;-69
2022/03/15 04:19:16;;;;;;;33.60;20.60;;;4.50;68.80;;;;;;5033556;28;20261;-70
2022/03/15 04:21:44;;;;;;;32.70;20.40;;;4.50;68.80;;;;;;5028990;28;20257;-69
2022/03/15 04:24:13;;;;;;;32.60;20.37;;;4.50;68.90;;;;;;5035718;28;20305;-69
2022/03/15 04:26:40;;;;;;;36.80;19.90;;;4.50;69.10;;;;;;5035090;28;20214;-70
2022/03/15 04:29:07;;;;;;;37.00;21.07;;;4.40;69.00;;;;;;5034612;28;20211;-70
2022/03/15 04:31:34;;;;;;;34.70;20.07;;;4.50;69.10;;;;;;5034506;28;20214;-70
2022/03/15 04:34:01;;;;;;;33.90;20.60;;;4.40;69.00;;;;;;5031821;28;20240;-70
2022/03/15 04:36:28;;;;;;;31.63;20.13;;;4.40;69.10;;;;;;5034674;28;20220;-69
2022/03/15 04:38:56;;;;;;;29.47;19.70;;;4.40;69.00;;;;;;5022140;28;20317;-70
2022/03/15 04:41:23;;;;;;;34.40;19.70;;;4.40;69.00;;;;;;5019282;28;20242;-70
2022/03/15 04:43:50;;;;;;;33.53;19.93;;;4.50;68.90;;;;;;5026550;28;20659;-69
2022/03/15 04:46:17;;;;;;;32.10;19.70;;;4.50;68.90;;;;;;5034556;28;20210;-70
2022/03/15 04:48:44;;;;;;;35.73;21.10;;;4.50;68.80;;;;;;5034776;28;20240;-70
2022/03/15 04:51:10;;;;;;;30.70;19.83;;;4.50;68.90;;;;;;5034176;28;20206;-70
2022/03/15 04:53:37;;;;;;;31.97;18.77;;;4.50;68.70;;;;;;5034377;28;20578;-71
2022/03/15 04:56:06;;;;;;;32.77;20.53;;;4.50;68.70;;;;;;5034278;28;20294;-70
2022/03/15 04:58:33;;;;;;;37.37;20.13;;;4.50;68.50;;;;;;5034178;28;20280;-69
2022/03/15 05:01:00;;;;;;;31.23;20.60;;;4.50;68.40;;;;;;5035692;28;20257;-69
2022/03/15 05:03:27;;;;;;;36.10;20.53;;;4.50;68.30;;;;;;5034488;28;20203;-70
2022/03/15 05:05:54;;;;;;;31.23;19.63;;;4.60;68.30;;;;;;5032416;28;20647;-69
2022/03/15 05:08:21;;;;;;;34.80;18.90;;;4.60;68.20;;;;;;5034122;28;20214;-70
2022/03/15 05:13:35;;;;;;;36.03;19.30;;;4.60;68.00;;;;;;5034689;28;20205;-70
2022/03/15 05:16:02;;;;;;;36.40;19.33;;;4.70;68.00;;;;;;5031797;28;20301;-70
2022/03/15 05:18:29;;;;;;;30.60;19.20;;;4.70;68.00;;;;;;5035076;28;20254;-70
2022/03/15 05:20:56;;;;;;;34.97;19.00;;;4.70;67.90;;;;;;5035005;28;20246;-69
2022/03/15 05:23:23;;;;;;;32.53;19.03;;;4.80;67.90;;;;;;5034861;28;20213;-70
2022/03/15 05:25:49;;;;;;;34.93;19.67;;;4.80;67.80;;;;;;5032129;28;20313;-72
2022/03/15 05:28:16;;;;;;;35.30;20.47;;;4.90;67.90;;;;;;5033808;28;20719;-71
2022/03/15 05:30:45;;;;;;;33.50;18.93;;;4.90;67.70;;;;;;5032562;28;20210;-72
2022/03/15 05:33:12;;;;;;;28.43;18.37;;;5.00;67.70;;;;;;5032399;28;20238;-72
2022/03/15 05:35:39;;;;;;;28.83;19.50;;;5.00;67.50;;;;;;5032242;28;20709;-72
2022/03/15 05:38:06;;;;;;;32.03;19.27;;;5.10;67.30;;;;;;5029622;28;20208;-72
2022/03/15 05:40:34;;;;;;;31.77;18.70;;;5.20;68.00;;;;;;5024395;28;20624;-73
2022/03/15 05:43:01;;;;;;;29.20;18.67;;;5.30;67.00;;;;;;5025593;28;20281;-72
2022/03/15 05:45:28;;;;;;;27.30;17.27;;;5.40;67.60;;;;;;5021991;28;20264;-72
2022/03/15 05:47:56;;;;;;;29.93;18.60;;;5.50;66.70;;;;;;5033200;28;20207;-72
2022/03/15 05:50:23;;;;;;;34.37;18.63;;;5.50;66.60;;;;;;5032115;28;20216;-72
2022/03/15 05:52:50;;;;;;;30.53;19.13;;;5.70;66.60;;;;;;5032193;28;20214;-72
2022/03/15 05:55:17;;;;;;;30.90;18.80;;;5.70;66.40;;;;;;5032181;28;20643;-72
2022/03/15 05:57:44;;;;;;;31.67;18.73;;;5.80;66.00;;;;;;5033471;28;20275;-72
2022/03/15 06:00:11;;;;;;;28.30;18.63;;;5.90;65.80;;;;;;5031904;28;20222;-71
2022/03/15 06:02:38;;;;;;;32.50;19.83;;;6.00;65.60;;;;;;5031371;28;20221;-70
2022/03/15 06:05:08;;;;;;;33.70;19.37;;;6.10;65.60;;;;;;5033168;28;20218;-69
2022/03/15 06:07:35;;;;;;;30.77;19.77;;;6.40;65.30;;;;;;5033586;28;20209;-69
2022/03/15 06:10:03;;;;;;;39.73;20.73;;;6.70;64.30;;;;;;5032946;28;20202;-70
2022/03/15 06:12:29;;;;;;;40.07;21.90;;;6.80;63.40;;;;;;5021952;28;20225;-70
2022/03/15 06:14:56;;;;;;;35.37;20.30;;;6.80;62.70;;;;;;5035723;28;20233;-69
2022/03/15 06:17:23;;;;;;;33.87;19.03;;;6.80;62.40;;;;;;5033809;28;20628;-69
2022/03/15 06:19:50;;;;;;;29.20;19.07;;;6.80;62.30;;;;;;5029204;28;20638;-69
2022/03/15 06:22:18;;;;;;;35.13;20.30;;;6.80;62.30;;;;;;5030031;28;20313;-69
2022/03/15 06:24:45;;;;;;;26.70;18.10;;;6.80;62.30;;;;;;5033801;28;20285;-71
2022/03/15 06:27:12;;;;;;;33.50;20.87;;;6.80;62.90;;;;;;5028073;28;20623;-70
2022/03/15 06:29:39;;;;;;;34.47;20.10;;;6.80;63.20;;;;;;5033317;28;20206;-69
2022/03/15 06:32:07;;;;;;;34.47;19.83;;;6.80;63.30;;;;;;5024614;28;20334;-70
2022/03/15 06:34:34;;;;;;;36.90;20.93;;;6.90;64.30;;;;;;5026484;28;20215;-69
2022/03/15 06:37:01;;;;;;;30.67;19.33;;;7.00;63.40;;;;;;5031443;28;20297;-70
2022/03/15 06:39:29;;;;;;;38.87;21.63;;;7.10;63.60;;;;;;5032311;28;20265;-71
2022/03/15 06:41:56;;;;;;;34.80;21.77;;;7.20;63.70;;;;;;5022388;28;20264;-70
2022/03/15 06:44:23;;;;;;;31.97;21.60;;;7.30;63.90;;;;;;5030397;28;20214;-70
2022/03/15 06:46:50;;;;;;;33.03;20.23;;;7.50;63.60;;;;;;5027873;28;20263;-71
2022/03/15 06:49:16;;;;;;;36.70;21.37;;;7.50;63.00;;;;;;5028088;28;20294;-70
2022/03/15 06:51:43;;;;;;;34.47;21.00;;;7.60;63.10;;;;;;5035090;28;20289;-70
2022/03/15 06:54:10;;;;;;;32.93;19.90;;;7.70;63.90;;;;;;5028199;28;20234;-70
2022/03/15 06:56:39;;;;;;;33.20;21.40;;;7.90;64.10;;;;;;5035179;28;20298;-70
2022/03/15 06:59:06;;;;;;;33.37;19.20;;;7.90;63.80;;;;;;5029081;28;20227;-70
2022/03/15 07:01:34;;;;;;;30.63;19.73;;;8.00;64.10;;;;;;5019031;28;20213;-69
2022/03/15 07:04:01;;;;;;;34.70;21.20;;;8.10;64.60;;;;;;5019024;28;20277;-70
2022/03/15 07:06:28;;;;;;;34.37;20.43;;;8.10;64.90;;;;;;5016961;28;20275;-71
2022/03/15 07:08:55;;;;;;;27.33;18.40;;;8.10;65.40;;;;;;5022289;28;20252;-72
2022/03/15 07:11:22;;;;;;;29.10;19.23;;;8.20;66.10;;;;;;5027625;28;20206;-70
2022/03/15 07:13:50;;;;;;;31.30;19.83;;;8.20;66.70;;;;;;5027650;28;20262;-74
2022/03/15 07:16:19;;;;;;;28.40;19.67;;;8.20;67.50;;;;;;5026870;28;20254;-73
2022/03/15 07:18:45;;;;;;;28.10;17.63;;;8.30;68.00;;;;;;5029293;28;20297;-71
2022/03/15 07:21:12;;;;;;;25.30;17.47;;;8.30;68.40;;;;;;5027672;28;20269;-72
2022/03/15 07:23:39;;;;;;;29.20;18.93;;;8.20;68.90;;;;;;5025915;28;20253;-71
2022/03/15 07:26:07;;;;;;;27.03;17.30;;;8.50;69.50;;;;;;5031330;28;20281;-71
2022/03/15 07:28:34;;;;;;;27.90;17.23;;;8.70;70.00;;;;;;5031972;28;20207;-72
2022/03/15 07:31:03;;;;;;;23.80;15.83;;;8.80;70.20;;;;;;5028477;28;20209;-72
2022/03/15 07:33:30;;;;;;;23.83;16.57;;;8.90;70.50;;;;;;5028781;28;20686;-71
2022/03/15 07:35:57;;;;;;;26.63;15.77;;;9.10;70.70;;;;;;5029143;28;20557;-69
2022/03/15 07:38:24;;;;;;;24.17;16.07;;;9.20;70.70;;;;;;5023628;28;20211;-70
2022/03/15 07:40:52;;;;;;;28.00;16.27;;;9.30;70.60;;;;;;5028190;28;20242;-69
2022/03/15 07:43:22;;;;;;;23.23;15.27;;;9.40;70.80;;;;;;5024787;28;20260;-71
2022/03/15 07:45:48;;;;;;;24.17;16.70;;;9.50;70.30;;;;;;5034602;28;20267;-72
2022/03/15 07:48:17;;;;;;;22.47;15.97;;;9.60;71.20;;;;;;5029821;28;20231;-70
2022/03/15 07:50:44;;;;;;;21.93;15.27;;;9.70;71.40;;;;;;5029943;28;20203;-70
2022/03/15 07:53:11;;;;;;;23.57;15.23;;;9.90;71.30;;;;;;5025309;28;20214;-70
2022/03/15 07:55:38;;;;;;;24.40;15.97;;;10.00;70.00;;;;;;5022996;28;20253;-69
2022/03/15 07:58:05;;;;;;;22.37;15.47;;;10.00;69.60;;;;;;5031978;28;20301;-70
2022/03/15 08:00:35;;;;;;;20.27;15.57;;;10.00;69.70;;;;;;5029624;28;20326;-68
2022/03/15 08:03:02;;;;;;;24.90;15.17;;;10.10;70.20;;;;;;5029880;28;20198;-68
2022/03/15 08:05:30;;;;;;;22.67;15.83;;;10.20;70.30;;;;;;5021925;28;20257;-69
2022/03/15 08:07:57;;;;;;;25.00;16.23;;;10.40;70.20;;;;;;5029687;28;20210;-69
2022/03/15 08:10:24;;;;;;;23.27;15.50;;;10.50;69.80;;;;;;5022027;28;20306;-68
2022/03/15 08:12:51;;;;;;;24.60;15.23;;;10.70;69.70;;;;;;5021830;28;20215;-72
2022/03/15 08:15:17;;;;;;;19.40;14.53;;;10.90;69.70;;;;;;5019789;28;20264;-71
2022/03/15 08:17:45;;;;;;;22.50;15.53;;;11.00;69.20;;;;;;5021179;28;20313;-69
2022/03/15 08:20:17;;;;;;;22.63;15.10;;;11.00;69.40;;;;;;5031574;28;20222;-69
2022/03/15 08:22:45;;;;;;;19.37;13.93;;;11.10;69.30;;;;;;5033670;28;20268;-70
2022/03/15 08:25:12;;;;;;;21.67;15.50;;;11.30;69.40;;;;;;5028253;28;20597;-72
2022/03/15 08:27:39;;;;;;;23.03;14.23;;;11.50;68.80;;;;;;5021063;28;20230;-70
2022/03/15 08:30:07;;;;;;;20.93;14.43;;;11.60;68.30;;;;;;5024431;28;20635;-71
2022/03/15 08:32:34;;;;;;;22.37;14.73;;;11.60;68.60;;;;;;5026125;28;20288;-71
2022/03/15 08:35:01;;;;;;;18.70;14.13;;;11.70;68.90;;;;;;5031400;28;20245;-72
2022/03/15 08:37:28;;;;;;;19.87;14.70;;;11.90;68.90;;;;;;5015975;28;20215;-73
2022/03/15 08:39:56;;;;;;;19.47;13.77;;;12.00;68.90;;;;;;5022997;28;20260;-72
2022/03/15 08:42:23;;;;;;;19.63;14.17;;;12.10;68.60;;;;;;5028148;28;20250;-72
2022/03/15 08:44:50;;;;;;;19.53;13.77;;;12.20;69.30;;;;;;5023746;28;20213;-72
2022/03/15 08:47:17;;;;;;;17.27;13.70;;;12.40;69.30;;;;;;5026348;28;20234;-71
2022/03/15 08:49:44;;;;;;;19.50;14.00;;;12.50;69.10;;;;;;5026901;28;20957;-71
2022/03/15 08:52:11;;;;;;;17.53;12.67;;;12.70;69.10;;;;;;5030985;28;20321;-71
2022/03/15 08:54:39;;;;;;;19.60;14.50;;;12.90;68.70;;;;;;5025157;28;20217;-71
2022/03/15 08:57:07;;;;;;;20.67;13.53;;;12.90;68.00;;;;;;5031236;28;20245;-71
2022/03/15 08:59:34;;;;;;;18.57;14.77;;;12.90;67.40;;;;;;5031691;28;20276;-70
2022/03/15 09:02:01;;;;;;;18.03;14.37;;;13.00;67.80;;;;;;5031635;28;20231;-71
2022/03/15 09:04:28;;;;;;;17.90;13.60;;;13.00;67.50;;;;;;5031220;28;20213;-72
2022/03/15 09:06:55;;;;;;;20.23;14.10;;;13.20;68.00;;;;;;5030324;28;20225;-71
2022/03/15 09:09:25;;;;;;;19.13;13.40;;;13.30;67.80;;;;;;5030602;28;20213;-71
2022/03/15 09:11:52;;;;;;;22.80;14.13;;;13.40;67.40;;;;;;5027096;28;20596;-71
2022/03/15 09:14:21;;;;;;;18.33;13.30;;;13.70;67.30;;;;;;5023890;28;20293;-72
2022/03/15 09:16:48;;;;;;;19.17;14.45;;;13.80;66.20;;;;;;5027659;28;20485;-70
2022/03/15 09:19:15;;;;;;;20.15;16.17;;;14.00;66.20;;;;;;5027425;28;20462;-71
2022/03/15 09:21:43;;;;;;;17.58;15.50;;;14.50;67.20;;;;;;5027773;28;20799;-70
2022/03/15 09:24:11;;;;;;;19.73;12.87;;;15.20;64.20;;;;;;5033141;28;20202;-71
2022/03/15 09:26:42;;;;;;;21.23;16.75;;;15.60;62.00;;;;;;5024544;28;20548;-71
2022/03/15 09:29:09;;;;;;;16.63;12.97;;;15.90;60.60;;;;;;5030950;28;20252;-71
2022/03/15 09:31:38;;;;;;;18.83;12.00;;;16.00;59.90;;;;;;5029094;28;20298;-72
2022/03/15 09:34:05;;;;;;;16.10;10.57;;;16.00;59.60;;;;;;5031157;28;20257;-71
2022/03/15 09:36:35;;;;;;;15.30;11.03;;;15.90;59.70;;;;;;5023706;28;20240;-70
2022/03/15 09:39:02;;;;;;;16.43;12.13;;;15.90;59.90;;;;;;5021963;28;20433;-71
2022/03/15 09:41:29;;;;;;;16.73;12.50;;;15.90;60.60;;;;;;5021964;28;20245;-71
2022/03/15 09:43:58;;;;;;;20.50;12.67;;;15.90;59.60;;;;;;5020598;28;20210;-71
2022/03/15 09:46:26;;;;;;;14.57;11.23;;;15.80;59.20;;;;;;5031367;28;20194;-71
2022/03/15 09:48:56;;;;;;;18.67;13.13;;;15.40;59.10;;;;;;5028251;28;20213;-71
2022/03/15 09:51:26;;;;;;;17.47;12.83;;;15.00;59.80;;;;;;5028774;28;20286;-70
2022/03/15 09:53:56;;;;;;;16.37;12.87;;;14.60;60.60;;;;;;5033604;28;20198;-70
2022/03/15 09:56:23;;;;;;;16.33;12.43;;;14.30;61.90;;;;;;5035025;28;20253;-71
2022/03/15 09:58:51;;;;;;;16.87;12.47;;;14.20;62.90;;;;;;5030930;28;20268;-69
2022/03/15 10:01:19;;;;;;;18.50;13.93;;;14.00;63.20;;;;;;5024315;28;20614;-71
2022/03/15 10:03:45;;;;;;;18.37;13.53;;;13.70;63.70;;;;;;5032519;28;20233;-69
2022/03/15 10:06:14;;;;;;;15.80;13.00;;;13.50;64.70;;;;;;5017479;28;20593;-71
2022/03/15 10:08:42;;;;;;;17.77;13.30;;;13.20;65.70;;;;;;5032444;28;20207;-69
2022/03/15 10:11:09;;;;;;;17.27;13.00;;;13.00;66.70;;;;;;5036350;28;20234;-69
2022/03/15 10:13:36;;;;;;;16.27;12.47;;;12.70;67.10;;;;;;5034913;28;20203;-69
2022/03/15 10:16:04;;;;;;;16.23;12.33;;;12.60;68.20;;;;;;5031150;28;20224;-68
2022/03/15 10:18:31;;;;;;;19.20;13.37;;;12.50;69.40;;;;;;5035033;28;20217;-68
2022/03/15 10:21:04;;;;;;;15.37;11.43;;;12.40;70.30;;;;;;5020999;28;20608;-69
2022/03/15 10:23:38;;;;;;;14.63;11.33;;;12.40;71.50;;;;;;5018476;28;20261;-69
2022/03/15 10:26:06;;;;;;;16.07;11.87;;;12.40;72.10;;;;;;5019862;28;20234;-69
2022/03/15 10:28:34;;;;;;;15.10;12.27;;;12.40;72.60;;;;;;5026475;28;20214;-70
2022/03/15 10:31:04;;;;;;;17.20;12.63;;;12.40;73.00;;;;;;5023515;28;20204;-70
2022/03/15 10:33:36;;;;;;;15.83;12.17;;;12.30;73.30;;;;;;5032662;28;20211;-70
2022/03/15 10:36:04;;;;;;;14.70;12.13;;;12.20;73.70;;;;;;5022597;28;20199;-70
2022/03/15 10:38:31;;;;;;;15.17;12.87;;;12.20;74.30;;;;;;5032558;28;20594;-71
2022/03/15 10:41:03;;;;;;;13.50;11.20;;;12.10;74.40;;;;;;5034510;28;20243;-71
2022/03/15 10:43:30;;;;;;;16.77;11.70;;;12.00;74.30;;;;;;5026547;28;20230;-72
2022/03/15 10:45:58;;;;;;;16.30;13.40;;;12.00;75.00;;;;;;5027592;28;20333;-73
2022/03/15 10:48:30;;;;;;;15.03;11.63;;;12.30;77.10;;;;;;5032661;28;20660;-72
2022/03/15 10:50:59;;;;;;;17.23;11.83;;;12.90;77.80;;;;;;5035882;28;20406;-72
2022/03/15 10:53:30;;;;;;;15.67;12.23;;;13.60;73.50;;;;;;5036838;28;20269;-74
2022/03/15 10:56:12;;;;;;;14.50;11.70;;;14.30;73.80;;;;;;5037609;28;20691;-72
2022/03/15 10:58:50;;;;;;;15.73;12.57;;;15.40;71.00;;;;;;5036043;28;20678;-73
2022/03/15 11:01:19;;;;;;;16.60;12.43;;;16.20;65.50;;;;;;5036398;28;20648;-73
2022/03/15 11:03:57;;;;;;;15.50;12.97;;;16.50;63.50;;;;;;5036011;28;20214;-71
2022/03/15 11:06:37;;;;;;;14.00;12.07;;;17.10;65.60;;;;;;5032776;28;20207;-74
2022/03/15 11:09:16;;;;;;;15.00;12.77;;;18.30;59.70;;;;;;5023781;28;20206;-73
2022/03/15 11:11:47;;;;;;;14.73;12.30;;;19.10;58.00;;;;;;5036926;28;20289;-74
2022/03/15 11:14:14;;;;;;;15.77;13.50;;;19.80;56.20;;;;;;5033596;28;20289;-72
2022/03/15 11:16:45;;;;;;;15.20;12.63;;;21.50;58.90;;;;;;5018235;28;20219;-72
2022/03/15 11:19:14;;;;;;;14.10;12.60;;;24.00;49.20;;;;;;5026432;28;20203;-70
2022/03/15 11:21:44;;;;;;;14.40;12.90;;;25.30;44.80;;;;;;5034719;28;20226;-70
2022/03/15 11:24:18;;;;;;;14.50;13.00;;;25.30;42.70;;;;;;5020799;28;20223;-72
2022/03/15 11:26:47;;;;;;;14.80;13.32;;;24.60;43.70;;;;;;5019187;28;20206;-72
2022/03/15 11:29:23;;;;;;;13.57;12.02;;;25.70;45.30;;;;;;5021836;28;20268;-70
2022/03/15 11:31:51;;;;;;;13.93;12.40;;;27.30;40.70;;;;;;5027831;28;20320;-70
2022/03/15 11:34:21;;;;;;;12.52;11.20;;;29.00;38.80;;;;;;5023869;28;20229;-71
2022/03/15 11:36:49;;;;;;;13.18;11.82;;;30.90;36.10;;;;;;5026517;28;20289;-70
2022/03/15 11:39:16;;;;;;;16.90;14.05;;;32.50;33.50;;;;;;5028497;28;20207;-71
2022/03/15 11:41:44;;;;;;;12.50;11.30;;;33.60;30.80;;;;;;5027312;28;20308;-72
2022/03/15 11:44:20;;;;;;;13.38;12.15;;;32.80;29.70;;;;;;5027447;28;20473;-69
2022/03/15 11:46:55;;;;;;;13.23;12.02;;;32.00;32.30;;;;;;5028042;28;20226;-69
2022/03/15 11:49:33;;;;;;;12.57;11.43;;;32.60;31.40;;;;;;5027310;28;20757;-68
2022/03/15 11:52:10;;;;;;;12.38;11.23;;;33.60;29.70;;;;;;5034038;28;20573;-68
2022/03/15 11:54:45;;;;;;;11.90;10.82;;;34.10;29.30;;;;;;5029370;28;20238;-68
2022/03/15 11:57:22;;;;;;;11.93;10.82;;;33.10;28.80;;;;;;5017962;28;20309;-67
2022/03/15 11:59:52;;;;;;;12.50;11.30;;;31.70;29.60;;;;;;5028108;28;20194;-67
2022/03/15 12:02:29;;;;;;;11.35;10.35;;;29.70;30.00;;;;;;5023072;28;20240;-70
2022/03/15 12:04:57;;;;;;;13.93;11.35;;;27.30;32.30;;;;;;5020518;28;20718;-69
2022/03/15 12:07:45;;;;;;;13.35;12.00;;;25.30;34.60;;;;;;5024847;28;20235;-68
2022/03/15 12:10:12;;;;;;;13.73;12.32;;;23.60;36.90;;;;;;5017158;28;20203;-67
2022/03/15 12:12:41;;;;;;;13.45;11.90;;;22.10;38.60;;;;;;5026309;28;20305;-68
2022/03/15 12:15:17;;;;;;;16.98;13.68;;;21.10;40.20;;;;;;5018138;28;20569;-68
2022/03/15 12:17:44;;;;;;;17.40;12.63;;;20.30;41.70;;;;;;5021628;28;20206;-69
2022/03/15 12:20:16;;;;;;;13.52;11.68;;;19.60;42.90;;;;;;5027982;28;20301;-67
2022/03/15 12:22:47;;;;;;;13.68;11.65;;;19.00;44.00;;;;;;5022373;28;20215;-68
2022/03/15 12:25:18;;;;;;;12.57;11.30;;;18.60;44.80;;;;;;5027707;28;20542;-69
2022/03/15 12:27:49;;;;;;;14.02;11.73;;;18.20;45.60;;;;;;5030283;28;20195;-70
2022/03/15 12:30:28;;;;;;;11.88;10.68;;;17.90;46.70;;;;;;5030346;28;20218;-69
2022/03/15 12:32:58;;;;;;;12.20;10.88;;;18.80;51.60;;;;;;5026559;28;20663;-69
2022/03/15 12:35:25;;;;;;;13.18;9.98;;;20.80;47.90;;;;;;5030294;28;20215;-71
2022/03/15 12:38:05;;;;;;;12.05;10.50;;;22.20;43.20;;;;;;5025393;28;20301;-70
2022/03/15 12:40:32;;;;;;;13.57;11.57;;;23.50;43.10;;;;;;5022600;28;20317;-71